Terminal Aerodrome Forecast
Issued by NWS Memphis, TN

Home | Current Version | Previous Version | Text Only | Print | Product List | Glossary On
Versions: 1 2 3 4 5 6 7 8 9 10 11 12 13
000
FTUS44 KMEG 040528
TAFJBR
TAF
KJBR 040528Z 0406/0506 23003KT P6SM SCT250
     FM041600 21008KT P6SM FEW050 SCT250
     FM050000 19003KT P6SM SCT250=

USA.gov is the U.S. government's official web portal to all federal, state and local government web resources and services.